Time;durP1;ratioP1;P1;durP2;ratioP2;P2;SDS_P1;SDS_P2;PMS_P1;PMS_P2;Temp;Humidity;BMP_temperature;BMP_pressure;BME280_temperature;BME280_humidity;BME280_pressure;Samples;Min_cycle;Max_cycle;Signal;HPM_P1;HPM_P2
2022/12/19 00:00:47;;;;;;;91.43;39.85;;;-4.90;99.90;;;;;;5047670;28;20534;-53
2022/12/19 00:03:13;;;;;;;94.22;41.78;;;-4.90;99.90;;;;;;5048918;28;20037;-52
2022/12/19 00:05:39;;;;;;;108.20;45.25;;;-4.90;99.90;;;;;;5047742;28;20052;-54
2022/12/19 00:08:11;;;;;;;94.95;40.65;;;-4.80;99.90;;;;;;5048790;28;20447;-51
2022/12/19 00:10:37;;;;;;;89.82;41.15;;;-4.80;99.90;;;;;;5048873;28;20025;-52
2022/12/19 00:13:02;;;;;;;106.18;42.50;;;-4.90;99.90;;;;;;5045879;28;20094;-50
2022/12/19 00:15:28;;;;;;;102.97;43.78;;;-4.90;99.90;;;;;;5048839;28;20060;-53
2022/12/19 00:17:54;;;;;;;90.85;38.92;;;-4.90;99.90;;;;;;5048688;28;20025;-54
2022/12/19 00:20:20;;;;;;;98.82;43.90;;;-4.80;99.90;;;;;;5048630;28;20036;-54
2022/12/19 00:22:45;;;;;;;97.85;41.05;;;-4.80;99.90;;;;;;5048738;28;20341;-52
2022/12/19 00:25:11;;;;;;;78.32;38.22;;;-4.80;99.90;;;;;;5048481;28;20029;-51
2022/12/19 00:27:36;;;;;;;95.10;40.53;;;-4.80;99.90;;;;;;5047271;28;20125;-52
2022/12/19 00:30:02;;;;;;;92.45;40.08;;;-4.80;99.90;;;;;;5048389;28;20033;-51
2022/12/19 00:32:28;;;;;;;94.38;41.67;;;-4.80;99.90;;;;;;5048678;28;20440;-50
2022/12/19 00:34:54;;;;;;;90.43;42.40;;;-4.80;99.90;;;;;;5048513;28;20029;-54
2022/12/19 00:37:19;;;;;;;96.85;43.22;;;-4.80;99.90;;;;;;5048373;28;20025;-55
2022/12/19 00:39:45;;;;;;;93.57;40.95;;;-4.80;99.90;;;;;;5048656;28;20017;-51
2022/12/19 00:42:10;;;;;;;97.72;41.05;;;-4.70;99.90;;;;;;5048205;28;20461;-53
2022/12/19 00:44:36;;;;;;;91.45;39.50;;;-4.70;99.90;;;;;;5048525;28;20497;-56
2022/12/19 00:47:02;;;;;;;92.50;39.28;;;-4.70;99.90;;;;;;5048259;28;20064;-54
2022/12/19 00:49:27;;;;;;;97.15;41.67;;;-4.70;99.90;;;;;;5048150;28;20068;-54
2022/12/19 00:51:56;;;;;;;85.05;39.25;;;-4.60;99.90;;;;;;5048383;28;20029;-52
2022/12/19 00:54:21;;;;;;;98.18;41.13;;;-4.60;99.90;;;;;;5048106;28;20060;-53
2022/12/19 00:56:47;;;;;;;92.50;41.42;;;-4.60;99.90;;;;;;5050357;28;20086;-52
2022/12/19 00:59:13;;;;;;;96.20;41.97;;;-4.60;99.90;;;;;;5050369;28;20036;-52
2022/12/19 01:01:40;;;;;;;93.55;41.05;;;-4.60;99.90;;;;;;5050670;28;20048;-53
2022/12/19 01:04:07;;;;;;;88.68;41.65;;;-4.60;99.90;;;;;;5051643;28;20107;-51
2022/12/19 01:06:33;;;;;;;89.97;42.03;;;-4.50;99.90;;;;;;5051676;28;20036;-55
2022/12/19 01:08:59;;;;;;;85.57;40.03;;;-4.50;99.90;;;;;;5051542;28;20355;-54
2022/12/19 01:14:11;;;;;;;97.68;39.17;;;-4.50;99.90;;;;;;5051587;28;20101;-53
2022/12/19 01:16:36;;;;;;;94.32;42.95;;;-4.50;99.90;;;;;;5051411;28;20029;-51
2022/12/19 01:19:02;;;;;;;92.47;42.10;;;-4.50;99.90;;;;;;5051491;28;20028;-55
2022/12/19 01:21:28;;;;;;;97.68;42.22;;;-4.50;99.90;;;;;;5050151;28;20078;-53
2022/12/19 01:23:53;;;;;;;90.50;40.42;;;-4.50;99.90;;;;;;5051409;28;20021;-52
2022/12/19 01:26:19;;;;;;;92.53;39.58;;;-4.50;99.90;;;;;;5051415;28;20372;-53
2022/12/19 01:28:45;;;;;;;91.22;41.33;;;-4.40;99.90;;;;;;5051173;28;20403;-51
2022/12/19 01:31:10;;;;;;;82.57;38.92;;;-4.50;99.90;;;;;;5051134;28;20112;-51
2022/12/19 01:33:39;;;;;;;89.60;39.72;;;-4.40;99.90;;;;;;5051266;28;20028;-52
2022/12/19 01:36:06;;;;;;;85.22;38.97;;;-4.40;99.90;;;;;;5051268;28;20017;-54
2022/12/19 01:38:33;;;;;;;89.95;38.42;;;-4.40;99.90;;;;;;5051385;28;20021;-53
2022/12/19 01:40:59;;;;;;;91.63;41.30;;;-4.30;99.90;;;;;;5051126;28;20101;-52
2022/12/19 01:43:27;;;;;;;81.45;39.88;;;-4.40;99.90;;;;;;5050982;28;20509;-53
2022/12/19 01:46:05;;;;;;;93.82;41.72;;;-4.30;99.90;;;;;;5049826;28;20031;-51
2022/12/19 01:48:43;;;;;;;99.68;45.00;;;-4.40;99.90;;;;;;5051178;28;20029;-53
2022/12/19 01:51:15;;;;;;;93.28;44.10;;;-4.40;99.90;;;;;;5050943;28;20017;-51
2022/12/19 01:53:58;;;;;;;97.13;42.15;;;-4.50;99.90;;;;;;5050889;28;20029;-54
2022/12/19 01:56:33;;;;;;;92.78;40.28;;;-4.40;99.90;;;;;;5050647;28;20021;-52
2022/12/19 01:59:04;;;;;;;79.90;41.35;;;-4.40;99.90;;;;;;5050865;28;20055;-55
2022/12/19 02:01:30;;;;;;;87.00;41.42;;;-4.40;99.90;;;;;;5050861;28;20033;-52
2022/12/19 02:03:58;;;;;;;90.47;39.35;;;-4.40;99.90;;;;;;5050768;28;20025;-56
2022/12/19 02:06:24;;;;;;;84.18;41.45;;;-4.40;99.90;;;;;;5050786;28;20486;-51
2022/12/19 02:08:50;;;;;;;96.25;40.30;;;-4.40;99.90;;;;;;5050492;28;20472;-52
2022/12/19 02:11:16;;;;;;;90.70;42.63;;;-4.40;99.90;;;;;;5050626;28;20025;-53
2022/12/19 02:13:43;;;;;;;94.85;42.45;;;-4.40;99.90;;;;;;5050243;28;20037;-52
2022/12/19 02:16:20;;;;;;;93.63;44.65;;;-4.40;99.90;;;;;;5050527;28;20074;-55
2022/12/19 02:19:24;;;;;;;83.78;40.42;;;-4.40;99.90;;;;;;5050770;28;20075;-55
2022/12/19 02:22:20;;;;;;;85.43;40.70;;;-4.30;99.90;;;;;;5019296;28;20086;-51
2022/12/19 02:25:05;;;;;;;89.93;36.50;;;-4.30;99.90;;;;;;5047110;28;20053;-54
2022/12/19 02:27:56;;;;;;;82.13;38.08;;;-4.30;99.90;;;;;;5050210;28;20078;-54
2022/12/19 02:30:44;;;;;;;86.35;39.17;;;-4.30;99.90;;;;;;5041672;28;20040;-55
2022/12/19 02:33:41;;;;;;;81.40;37.53;;;-4.30;99.90;;;;;;5050191;28;20021;-53
2022/12/19 02:36:14;;;;;;;86.85;41.75;;;-4.30;99.90;;;;;;5050132;28;20049;-53
2022/12/19 02:38:56;;;;;;;80.25;40.70;;;-4.30;99.90;;;;;;5050251;28;20021;-52
2022/12/19 02:41:41;;;;;;;79.07;39.20;;;-4.30;99.90;;;;;;5050212;28;20075;-54
2022/12/19 02:44:14;;;;;;;89.93;40.03;;;-4.30;99.90;;;;;;5049982;28;20024;-54
2022/12/19 02:46:42;;;;;;;73.65;36.25;;;-4.30;99.90;;;;;;5050282;28;20052;-53
2022/12/19 02:49:09;;;;;;;78.72;38.13;;;-4.30;99.90;;;;;;5048681;28;20053;-53
2022/12/19 02:51:35;;;;;;;81.68;37.80;;;-4.30;99.90;;;;;;5049996;28;20029;-52
2022/12/19 02:54:00;;;;;;;88.15;38.75;;;-4.20;99.90;;;;;;5050073;28;20025;-50
2022/12/19 02:56:29;;;;;;;80.90;37.35;;;-4.20;99.90;;;;;;5049791;28;20020;-53
2022/12/19 02:59:21;;;;;;;79.70;37.72;;;-4.20;99.90;;;;;;5049933;28;20032;-51
2022/12/19 03:01:56;;;;;;;90.40;40.72;;;-4.20;99.90;;;;;;5046743;28;20041;-54
2022/12/19 03:04:35;;;;;;;88.13;40.10;;;-4.20;99.90;;;;;;5049774;28;20613;-50
2022/12/19 03:07:08;;;;;;;84.78;39.67;;;-4.20;99.90;;;;;;5049786;28;20143;-53
2022/12/19 03:09:42;;;;;;;90.55;42.70;;;-4.20;99.90;;;;;;5048433;28;20032;-51
2022/12/19 03:12:15;;;;;;;85.45;39.40;;;-4.20;99.90;;;;;;5049595;28;20085;-52
2022/12/19 03:14:42;;;;;;;89.70;41.63;;;-4.20;99.90;;;;;;5048430;28;20029;-53
2022/12/19 03:17:08;;;;;;;83.75;37.15;;;-4.20;99.90;;;;;;5049510;28;20036;-50
2022/12/19 03:19:34;;;;;;;91.25;40.28;;;-4.20;99.90;;;;;;5047854;28;20029;-51
2022/12/19 03:22:00;;;;;;;86.90;40.78;;;-4.20;99.90;;;;;;5049659;28;20040;-54
2022/12/19 03:24:27;;;;;;;89.45;39.80;;;-4.20;99.90;;;;;;5049463;28;20025;-55
2022/12/19 03:27:02;;;;;;;98.03;40.13;;;-4.20;99.90;;;;;;5049696;28;20021;-50
2022/12/19 03:29:38;;;;;;;92.57;42.58;;;-4.10;99.90;;;;;;5048316;28;20021;-54
2022/12/19 03:32:09;;;;;;;89.53;42.78;;;-4.20;99.90;;;;;;5049307;28;20077;-52
2022/12/19 03:34:52;;;;;;;90.03;42.53;;;-4.10;99.90;;;;;;5049418;28;20029;-53
2022/12/19 03:37:24;;;;;;;85.30;43.67;;;-4.10;99.90;;;;;;5049309;28;20029;-52
2022/12/19 03:39:56;;;;;;;88.82;41.25;;;-4.10;99.90;;;;;;5049464;28;20381;-50
2022/12/19 03:45:12;;;;;;;96.53;42.13;;;-4.10;99.90;;;;;;5049369;28;20101;-50
2022/12/19 03:47:43;;;;;;;90.75;41.30;;;-4.10;99.90;;;;;;5049059;28;20021;-56
2022/12/19 03:50:09;;;;;;;93.72;44.83;;;-4.00;99.90;;;;;;5049205;28;20573;-51
2022/12/19 03:52:51;;;;;;;96.38;42.47;;;-4.00;99.90;;;;;;5049179;28;20021;-52
2022/12/19 03:55:20;;;;;;;93.18;42.08;;;-4.10;99.90;;;;;;5048746;28;20170;-52
2022/12/19 03:57:52;;;;;;;92.07;39.90;;;-4.00;99.90;;;;;;5048942;28;20025;-52
2022/12/19 04:00:19;;;;;;;95.07;42.83;;;-4.00;99.90;;;;;;5047749;28;20033;-51
2022/12/19 04:02:51;;;;;;;92.93;39.83;;;-4.00;99.90;;;;;;5048860;28;20268;-53
2022/12/19 04:05:19;;;;;;;95.75;41.47;;;-4.00;99.90;;;;;;5048844;28;20154;-51
2022/12/19 04:07:47;;;;;;;81.53;38.60;;;-4.00;99.90;;;;;;5048832;28;20028;-53
2022/12/19 04:10:18;;;;;;;93.55;41.70;;;-4.00;99.90;;;;;;5048760;28;20025;-53
2022/12/19 04:13:04;;;;;;;91.82;41.20;;;-4.00;99.90;;;;;;5048742;28;20103;-51
2022/12/19 04:15:53;;;;;;;82.82;40.63;;;-3.90;99.90;;;;;;5048886;28;20021;-51
2022/12/19 04:18:19;;;;;;;91.78;37.72;;;-3.90;99.90;;;;;;5051162;28;20449;-54
2022/12/19 04:20:54;;;;;;;94.30;41.38;;;-3.90;99.90;;;;;;5048602;28;20021;-53
2022/12/19 04:23:22;;;;;;;81.22;40.15;;;-3.90;99.90;;;;;;5048507;28;20144;-52
2022/12/19 04:25:51;;;;;;;81.13;42.08;;;-3.80;99.90;;;;;;5048735;28;20402;-52
2022/12/19 04:28:53;;;;;;;79.22;37.47;;;-3.90;99.90;;;;;;5047707;28;20024;-53
2022/12/19 04:31:20;;;;;;;91.68;39.85;;;-3.90;99.90;;;;;;5049759;28;20041;-51
2022/12/19 04:33:46;;;;;;;89.18;39.10;;;-3.90;99.90;;;;;;5047883;28;20030;-55
2022/12/19 04:36:11;;;;;;;78.93;41.50;;;-3.90;99.90;;;;;;5047834;28;20037;-54
2022/12/19 04:38:37;;;;;;;89.10;39.58;;;-3.90;99.90;;;;;;5047363;28;20031;-51
2022/12/19 04:41:03;;;;;;;85.05;39.30;;;-3.80;99.90;;;;;;5047572;28;20033;-53
2022/12/19 04:43:29;;;;;;;86.45;40.33;;;-3.80;99.90;;;;;;5046408;28;20029;-54
2022/12/19 04:45:55;;;;;;;92.68;38.38;;;-3.80;99.90;;;;;;5048374;28;20033;-54
2022/12/19 04:48:20;;;;;;;95.85;41.70;;;-3.80;99.90;;;;;;5048060;28;20516;-54
2022/12/19 04:50:46;;;;;;;83.43;40.85;;;-3.90;99.90;;;;;;5047019;28;20145;-55
2022/12/19 04:53:12;;;;;;;93.25;41.38;;;-3.80;99.90;;;;;;5048335;27;20025;-52
2022/12/19 04:55:38;;;;;;;83.35;37.13;;;-3.80;99.90;;;;;;5048195;28;20456;-53
2022/12/19 04:58:05;;;;;;;78.38;38.97;;;-3.80;99.90;;;;;;5048189;28;20036;-53
2022/12/19 05:00:31;;;;;;;87.45;39.05;;;-3.80;99.90;;;;;;5048092;28;20057;-54
2022/12/19 05:02:57;;;;;;;81.50;38.67;;;-3.80;99.90;;;;;;5048231;27;20337;-54
2022/12/19 05:05:22;;;;;;;82.15;38.28;;;-3.80;99.90;;;;;;5047941;28;20081;-52
2022/12/19 05:07:48;;;;;;;112.30;46.60;;;-3.80;99.90;;;;;;5048126;28;20478;-54
2022/12/19 05:10:14;;;;;;;90.53;42.00;;;-3.70;99.90;;;;;;5048023;28;20028;-53
2022/12/19 05:12:39;;;;;;;120.43;50.17;;;-3.70;99.90;;;;;;5047893;28;20049;-55
2022/12/19 05:15:05;;;;;;;82.82;39.80;;;-3.70;99.90;;;;;;5047975;28;20025;-54
2022/12/19 05:17:31;;;;;;;78.10;37.33;;;-3.70;99.90;;;;;;5047859;28;20025;-55
2022/12/19 05:19:57;;;;;;;75.05;34.05;;;-3.70;99.90;;;;;;5046554;28;20081;-56
2022/12/19 05:22:30;;;;;;;87.55;40.88;;;-3.70;99.90;;;;;;5047762;28;20033;-53
2022/12/19 05:24:55;;;;;;;81.80;40.42;;;-3.70;99.90;;;;;;5047843;28;20036;-51
2022/12/19 05:27:21;;;;;;;79.85;38.40;;;-3.60;99.90;;;;;;5047481;28;20033;-52
2022/12/19 05:29:47;;;;;;;79.43;38.30;;;-3.60;99.90;;;;;;5047589;28;20039;-53
2022/12/19 05:32:12;;;;;;;73.43;37.10;;;-3.60;99.90;;;;;;5047696;28;20033;-53
2022/12/19 05:34:38;;;;;;;77.28;36.70;;;-3.50;99.90;;;;;;5047841;28;20025;-50
2022/12/19 05:37:03;;;;;;;76.60;37.17;;;-3.60;99.90;;;;;;5047514;28;20032;-54
2022/12/19 05:39:29;;;;;;;73.15;38.15;;;-3.60;99.90;;;;;;5047850;28;20025;-52
2022/12/19 05:41:55;;;;;;;80.53;37.90;;;-3.60;99.90;;;;;;5048158;28;20033;-52
2022/12/19 05:44:21;;;;;;;85.65;39.30;;;-3.60;99.90;;;;;;5051110;28;20033;-53
2022/12/19 05:46:46;;;;;;;82.07;39.72;;;-3.50;99.90;;;;;;5050887;28;20101;-52
2022/12/19 05:49:15;;;;;;;90.68;44.67;;;-3.50;99.90;;;;;;5050980;28;20040;-56
2022/12/19 05:51:41;;;;;;;73.40;39.08;;;-3.40;99.90;;;;;;5049782;28;20094;-54
2022/12/19 05:54:06;;;;;;;73.00;36.40;;;-3.40;99.90;;;;;;5049640;28;20468;-52
2022/12/19 05:56:32;;;;;;;73.38;38.10;;;-3.40;99.90;;;;;;5049611;28;20048;-51
2022/12/19 05:58:57;;;;;;;67.03;34.15;;;-3.40;99.90;;;;;;5049696;28;20716;-53
2022/12/19 06:01:25;;;;;;;72.90;37.72;;;-3.40;99.90;;;;;;5049765;27;20064;-52
2022/12/19 06:03:52;;;;;;;76.18;37.03;;;-3.30;99.90;;;;;;5049678;28;20025;-51
2022/12/19 06:06:21;;;;;;;69.00;37.47;;;-3.30;99.90;;;;;;5049352;28;20025;-52
2022/12/19 06:08:50;;;;;;;66.78;36.00;;;-3.30;99.90;;;;;;5049275;28;20052;-51
2022/12/19 06:11:16;;;;;;;67.63;34.17;;;-3.30;99.90;;;;;;5049618;28;20104;-50
2022/12/19 06:13:42;;;;;;;66.50;34.17;;;-3.30;99.90;;;;;;5049247;28;20120;-54
2022/12/19 06:16:14;;;;;;;70.28;36.30;;;-3.20;99.90;;;;;;5049337;28;20441;-49
2022/12/19 06:18:40;;;;;;;64.35;33.40;;;-3.20;99.90;;;;;;5049385;27;20025;-49
2022/12/19 06:21:11;;;;;;;68.88;34.05;;;-3.20;99.90;;;;;;5049204;28;20036;-52
2022/12/19 06:23:37;;;;;;;65.47;33.13;;;-3.20;99.90;;;;;;5049264;28;20429;-54
2022/12/19 06:26:05;;;;;;;67.13;33.30;;;-3.10;99.90;;;;;;5047771;28;20025;-53
2022/12/19 06:28:31;;;;;;;68.22;35.33;;;-3.10;99.90;;;;;;5049103;28;20021;-51
2022/12/19 06:30:58;;;;;;;68.40;35.35;;;-3.10;99.90;;;;;;5049269;28;20290;-54
2022/12/19 06:33:25;;;;;;;70.63;37.05;;;-3.20;99.90;;;;;;5049066;28;20370;-50
2022/12/19 06:36:00;;;;;;;90.85;43.15;;;-3.20;99.90;;;;;;5049040;27;20082;-52
2022/12/19 06:38:27;;;;;;;70.22;35.78;;;-3.20;99.90;;;;;;5049074;28;20415;-53
2022/12/19 06:43:37;;;;;;;71.10;32.90;;;-3.20;99.90;;;;;;5049226;28;20043;-55
2022/12/19 06:46:04;;;;;;;67.55;33.80;;;-3.10;99.90;;;;;;5048793;28;20021;-51
2022/12/19 06:48:30;;;;;;;60.63;34.13;;;-3.00;99.90;;;;;;5048942;28;20033;-52
2022/12/19 06:50:55;;;;;;;61.63;33.28;;;-3.00;99.90;;;;;;5048925;28;20487;-50
2022/12/19 06:53:21;;;;;;;61.00;32.10;;;-3.10;99.90;;;;;;5047919;28;20432;-49
2022/12/19 06:55:52;;;;;;;65.57;34.95;;;-3.10;99.90;;;;;;5048642;28;20081;-53
2022/12/19 06:58:18;;;;;;;67.15;32.28;;;-3.10;99.90;;;;;;5048626;28;20426;-53
2022/12/19 07:00:44;;;;;;;68.47;31.58;;;-3.10;99.90;;;;;;5048801;28;20029;-52
2022/12/19 07:03:12;;;;;;;66.55;35.35;;;-3.10;99.90;;;;;;5048647;28;20062;-50
2022/12/19 07:05:39;;;;;;;75.22;36.97;;;-3.10;99.90;;;;;;5047574;28;20466;-54
2022/12/19 07:08:06;;;;;;;68.10;35.13;;;-3.00;99.90;;;;;;5048294;28;20109;-54
2022/12/19 07:10:32;;;;;;;68.53;34.90;;;-3.00;99.90;;;;;;5048522;28;20025;-51
2022/12/19 07:12:58;;;;;;;61.65;34.47;;;-2.90;99.90;;;;;;5048421;28;20173;-54
2022/12/19 07:15:24;;;;;;;66.32;35.17;;;-2.80;99.90;;;;;;5048358;28;20108;-51
2022/12/19 07:17:50;;;;;;;64.90;34.03;;;-2.70;99.90;;;;;;5048521;28;20494;-50
2022/12/19 07:20:16;;;;;;;68.57;33.50;;;-2.60;99.90;;;;;;5048346;28;20335;-54
2022/12/19 07:22:43;;;;;;;62.95;34.28;;;-2.70;99.90;;;;;;5048270;28;20025;-51
2022/12/19 07:25:09;;;;;;;61.17;31.95;;;-2.70;99.90;;;;;;5048231;28;20033;-53
2022/12/19 07:27:35;;;;;;;73.00;36.20;;;-2.70;99.90;;;;;;5048270;28;20104;-52
2022/12/19 07:30:02;;;;;;;61.97;32.65;;;-2.60;99.90;;;;;;5048367;28;20059;-51
2022/12/19 07:32:28;;;;;;;72.93;35.25;;;-2.70;99.90;;;;;;5048194;28;20364;-52
2022/12/19 07:34:54;;;;;;;64.90;34.83;;;-2.70;99.90;;;;;;5048055;28;20021;-54
2022/12/19 07:37:20;;;;;;;63.85;32.85;;;-2.70;99.90;;;;;;5047986;28;20040;-51
2022/12/19 07:39:46;;;;;;;62.80;32.55;;;-2.60;99.90;;;;;;5048072;28;20104;-52
2022/12/19 07:42:12;;;;;;;72.03;34.60;;;-2.60;99.90;;;;;;5047859;28;20029;-54
2022/12/19 07:44:38;;;;;;;62.30;31.42;;;-2.60;99.90;;;;;;5048024;28;20161;-50
2022/12/19 07:47:04;;;;;;;70.55;34.70;;;-2.60;99.90;;;;;;5046796;28;20765;-50
2022/12/19 07:49:29;;;;;;;72.60;34.55;;;-2.60;99.90;;;;;;5048024;28;20025;-53
2022/12/19 07:51:55;;;;;;;68.70;35.13;;;-2.50;99.90;;;;;;5048024;28;20063;-56
2022/12/19 07:54:20;;;;;;;66.80;34.17;;;-2.40;99.90;;;;;;5047806;28;20021;-53
2022/12/19 07:56:46;;;;;;;71.78;35.45;;;-2.40;99.90;;;;;;5047521;28;20028;-50
2022/12/19 07:59:12;;;;;;;71.95;34.50;;;-2.40;99.90;;;;;;5046557;28;20391;-50
2022/12/19 08:01:38;;;;;;;65.10;34.15;;;-2.40;99.90;;;;;;5047926;28;20052;-53
2022/12/19 08:04:07;;;;;;;67.05;35.25;;;-2.30;99.90;;;;;;5047771;28;20032;-54
2022/12/19 08:06:32;;;;;;;69.60;32.97;;;-2.30;99.90;;;;;;5047437;28;20385;-53
2022/12/19 08:08:58;;;;;;;72.38;35.40;;;-2.10;99.90;;;;;;5047628;28;20032;-53
2022/12/19 08:11:28;;;;;;;62.45;32.53;;;-2.00;99.90;;;;;;5047307;28;20047;-52
2022/12/19 08:13:55;;;;;;;63.72;32.78;;;-1.90;99.90;;;;;;5047380;28;20112;-52
2022/12/19 08:16:22;;;;;;;64.40;32.28;;;-1.80;99.90;;;;;;5047476;28;20025;-51
2022/12/19 08:18:47;;;;;;;70.05;36.63;;;-1.80;99.90;;;;;;5047677;28;20089;-54
2022/12/19 08:21:13;;;;;;;69.68;34.90;;;-1.80;99.90;;;;;;5046582;28;20025;-50
2022/12/19 08:23:39;;;;;;;75.07;36.28;;;-1.90;99.90;;;;;;5047363;28;20040;-52
2022/12/19 08:26:07;;;;;;;68.18;34.63;;;-1.80;99.90;;;;;;5047323;28;20029;-50
2022/12/19 08:28:34;;;;;;;65.80;33.78;;;-1.70;99.90;;;;;;5047578;28;20021;-50
2022/12/19 08:31:11;;;;;;;61.83;34.17;;;-1.60;99.90;;;;;;5047591;28;20104;-54
2022/12/19 08:33:37;;;;;;;68.32;32.97;;;-1.50;99.90;;;;;;5046066;28;20025;-53
2022/12/19 08:36:08;;;;;;;411.27;197.05;;;-1.50;99.90;;;;;;5047226;28;20519;-51
2022/12/19 08:38:34;;;;;;;554.97;274.13;;;-1.60;99.90;;;;;;5047185;28;20029;-51
2022/12/19 08:41:00;;;;;;;182.35;94.97;;;-1.50;99.90;;;;;;5047287;28;20424;-52
2022/12/19 08:43:26;;;;;;;105.80;54.28;;;-1.50;99.90;;;;;;5047345;28;20116;-49
2022/12/19 08:45:52;;;;;;;95.97;51.30;;;-1.50;99.90;;;;;;5047350;28;20055;-50
2022/12/19 08:48:18;;;;;;;84.25;45.38;;;-1.60;99.90;;;;;;5046952;28;20053;-51
2022/12/19 08:50:59;;;;;;;68.32;38.35;;;-1.50;99.90;;;;;;5045636;28;20025;-53
2022/12/19 08:53:27;;;;;;;67.22;34.15;;;-1.60;99.90;;;;;;5046921;28;20025;-55
2022/12/19 08:55:54;;;;;;;61.88;34.50;;;-1.60;99.90;;;;;;5045782;28;20029;-52
2022/12/19 08:58:20;;;;;;;61.20;32.47;;;-1.60;99.90;;;;;;5046953;28;20099;-52
2022/12/19 09:00:46;;;;;;;67.90;33.53;;;-1.70;99.90;;;;;;5047072;28;20112;-53
2022/12/19 09:03:12;;;;;;;67.75;34.72;;;-1.80;99.90;;;;;;5046789;28;20029;-55
2022/12/19 09:05:38;;;;;;;71.07;33.38;;;-1.80;99.90;;;;;;5046799;28;20021;-53
2022/12/19 09:08:04;;;;;;;68.07;32.58;;;-1.70;99.90;;;;;;5046689;28;20061;-50
2022/12/19 09:10:30;;;;;;;73.57;35.38;;;-1.50;99.90;;;;;;5046998;28;20050;-52
2022/12/19 09:12:56;;;;;;;62.65;32.92;;;-1.30;99.90;;;;;;5046867;28;20049;-53
2022/12/19 09:15:22;;;;;;;65.68;33.22;;;-1.30;99.90;;;;;;5046687;28;20021;-51
2022/12/19 09:17:48;;;;;;;62.35;31.77;;;-1.30;99.90;;;;;;5048587;28;20403;-51
2022/12/19 09:20:14;;;;;;;57.92;31.15;;;-1.20;99.90;;;;;;5050259;28;20104;-55
2022/12/19 09:22:41;;;;;;;66.75;34.70;;;-1.00;99.90;;;;;;5050366;28;20526;-53
2022/12/19 09:25:07;;;;;;;68.15;35.35;;;-0.90;99.90;;;;;;5050141;28;20021;-54
2022/12/19 09:27:32;;;;;;;70.85;35.85;;;-0.70;99.90;;;;;;5050408;28;20018;-51
2022/12/19 09:29:58;;;;;;;72.07;37.88;;;-0.60;99.90;;;;;;5050003;28;20074;-52
2022/12/19 09:32:24;;;;;;;51.95;33.00;;;-0.60;99.90;;;;;;5050052;28;20021;-54
2022/12/19 09:34:49;;;;;;;74.38;40.63;;;-0.40;99.90;;;;;;5050224;28;20021;-52
2022/12/19 09:37:15;;;;;;;67.78;37.17;;;-0.40;99.90;;;;;;5049865;28;20029;-52
2022/12/19 09:39:41;;;;;;;59.33;34.60;;;-0.50;99.90;;;;;;5049914;28;20270;-51
2022/12/19 09:42:32;;;;;;;70.60;36.53;;;-0.40;99.90;;;;;;5049890;28;20108;-49
2022/12/19 09:45:24;;;;;;;73.75;44.83;;;-0.30;99.90;;;;;;5059398;28;20044;-52
2022/12/19 09:48:00;;;;;;;74.63;42.10;;;-0.30;99.90;;;;;;5049835;28;20028;-53
2022/12/19 09:50:50;;;;;;;73.40;41.65;;;-0.30;99.90;;;;;;5049820;28;20410;-49
2022/12/19 09:53:32;;;;;;;77.38;42.85;;;-0.20;99.90;;;;;;5049645;28;20097;-49
2022/12/19 09:55:59;;;;;;;96.18;56.55;;;0.00;99.90;;;;;;5049713;28;20104;-54
2022/12/19 09:58:39;;;;;;;124.50;64.95;;;0.00;99.90;;;;;;5049644;28;20033;-53
2022/12/19 10:01:15;;;;;;;204.35;100.28;;;0.20;99.90;;;;;;5049636;28;20029;-53
2022/12/19 10:03:45;;;;;;;97.88;53.78;;;0.30;99.90;;;;;;5049779;28;20029;-53
2022/12/19 10:06:18;;;;;;;92.82;51.33;;;0.60;99.90;;;;;;5049539;28;20437;-55
2022/12/19 10:08:45;;;;;;;184.00;98.40;;;0.70;99.90;;;;;;5049366;28;20033;-56
2022/12/19 10:11:13;;;;;;;238.20;117.95;;;0.80;99.90;;;;;;5049362;28;20104;-56
2022/12/19 10:13:45;;;;;;;135.13;73.72;;;1.00;99.90;;;;;;5049443;28;20041;-51
2022/12/19 10:16:39;;;;;;;255.25;117.57;;;1.10;99.90;;;;;;5049374;28;20061;-53
2022/12/19 10:19:26;;;;;;;92.57;47.22;;;1.10;99.90;;;;;;5049201;27;20017;-53
2022/12/19 10:22:19;;;;;;;145.73;77.97;;;1.00;99.90;;;;;;5049375;28;20028;-54
2022/12/19 10:25:13;;;;;;;133.18;62.17;;;1.00;99.90;;;;;;5049261;28;20025;-54
2022/12/19 10:27:57;;;;;;;113.95;56.78;;;1.20;99.90;;;;;;5049002;28;20040;-50
2022/12/19 10:30:24;;;;;;;282.73;125.68;;;1.50;99.90;;;;;;5048377;28;20027;-56
2022/12/19 10:33:04;;;;;;;104.55;55.20;;;1.20;99.90;;;;;;5049115;28;20108;-56
2022/12/19 10:35:34;;;;;;;202.05;96.60;;;1.40;99.90;;;;;;5047837;28;20029;-53
2022/12/19 10:38:08;;;;;;;93.35;47.40;;;1.40;99.90;;;;;;5049256;28;20055;-54
2022/12/19 10:40:52;;;;;;;284.10;126.68;;;1.60;99.90;;;;;;5048919;28;20029;-56
2022/12/19 10:43:29;;;;;;;97.18;50.38;;;1.50;99.90;;;;;;5048630;28;20048;-53
2022/12/19 10:45:59;;;;;;;136.13;68.35;;;1.40;99.90;;;;;;5049048;28;20060;-52
2022/12/19 10:48:24;;;;;;;208.82;108.45;;;1.10;99.90;;;;;;5048620;28;20029;-54
2022/12/19 10:50:50;;;;;;;91.57;49.80;;;1.00;99.90;;;;;;5048289;28;20065;-54
2022/12/19 10:53:24;;;;;;;126.05;57.53;;;1.10;99.90;;;;;;5049151;28;20376;-55
2022/12/19 10:55:58;;;;;;;78.13;34.40;;;0.90;99.90;;;;;;5049153;28;20072;-54
2022/12/19 10:58:27;;;;;;;98.10;50.25;;;0.90;99.90;;;;;;5048941;28;20190;-53
2022/12/19 11:01:12;;;;;;;62.00;36.42;;;0.70;99.90;;;;;;5048984;28;20045;-53
2022/12/19 11:03:41;;;;;;;110.13;64.95;;;0.70;99.90;;;;;;5048660;28;20052;-53
2022/12/19 11:06:41;;;;;;;171.85;95.70;;;0.90;99.90;;;;;;5048026;28;20035;-52
2022/12/19 11:09:22;;;;;;;65.40;38.05;;;0.70;99.90;;;;;;5047700;28;20032;-52
2022/12/19 11:12:03;;;;;;;57.97;33.45;;;0.60;99.90;;;;;;5048233;28;20028;-52
2022/12/19 11:14:30;;;;;;;56.00;32.40;;;0.50;99.90;;;;;;5046468;28;20037;-51
2022/12/19 11:16:56;;;;;;;53.75;31.20;;;0.60;99.90;;;;;;5047556;28;20231;-54
2022/12/19 11:19:38;;;;;;;57.67;32.80;;;0.70;99.90;;;;;;5047491;28;20033;-54
2022/12/19 11:22:06;;;;;;;58.38;33.45;;;0.70;99.90;;;;;;5048280;28;20086;-55
2022/12/19 11:24:39;;;;;;;97.57;50.03;;;0.60;99.90;;;;;;5048445;28;20503;-51
2022/12/19 11:27:35;;;;;;;122.50;63.33;;;0.60;99.90;;;;;;5048224;28;20032;-53
2022/12/19 11:30:05;;;;;;;54.85;31.25;;;0.80;99.90;;;;;;5047067;28;20029;-54
2022/12/19 11:32:34;;;;;;;60.72;35.03;;;0.90;99.90;;;;;;5048321;28;20365;-53
2022/12/19 11:35:02;;;;;;;56.08;32.28;;;0.90;99.90;;;;;;5048652;28;20018;-53
2022/12/19 11:37:57;;;;;;;54.35;32.03;;;1.20;99.90;;;;;;5047986;28;20032;-54
2022/12/19 11:40:44;;;;;;;51.22;29.95;;;1.40;99.90;;;;;;5047393;28;20423;-51
2022/12/19 11:43:27;;;;;;;50.45;29.95;;;2.30;99.90;;;;;;5048159;28;20017;-52
2022/12/19 11:46:05;;;;;;;50.40;29.40;;;2.90;99.90;;;;;;5048084;28;20025;-56
2022/12/19 11:48:38;;;;;;;43.72;26.30;;;3.50;99.30;;;;;;5048023;28;20332;-54
2022/12/19 11:51:33;;;;;;;45.70;28.83;;;3.50;97.80;;;;;;5047991;28;20655;-54
2022/12/19 11:54:05;;;;;;;48.95;27.63;;;3.60;97.80;;;;;;5047937;28;20073;-52
2022/12/19 11:56:31;;;;;;;49.78;27.98;;;3.70;97.20;;;;;;5048149;28;20025;-53
2022/12/19 11:59:20;;;;;;;45.90;28.52;;;3.70;97.30;;;;;;5047978;28;20523;-56
2022/12/19 12:02:04;;;;;;;50.70;28.77;;;3.80;96.60;;;;;;5047348;28;20052;-54
2022/12/19 12:05:03;;;;;;;51.22;29.75;;;3.50;97.50;;;;;;5047758;28;20461;-54
2022/12/19 12:07:35;;;;;;;46.65;29.70;;;3.60;97.80;;;;;;5047689;28;20081;-54
2022/12/19 12:10:21;;;;;;;50.45;30.33;;;3.40;97.40;;;;;;5047720;28;20017;-54
2022/12/19 12:13:28;;;;;;;50.15;30.67;;;3.00;98.20;;;;;;5047458;28;20078;-50
2022/12/19 12:16:15;;;;;;;49.80;29.58;;;2.50;98.80;;;;;;5039206;28;20033;-52
2022/12/19 12:19:03;;;;;;;54.22;31.23;;;2.10;99.90;;;;;;5046329;28;20487;-51
2022/12/19 12:21:41;;;;;;;56.72;32.40;;;1.90;99.90;;;;;;5047798;28;20037;-52
2022/12/19 12:24:30;;;;;;;53.03;31.23;;;1.40;99.90;;;;;;5047442;28;20025;-52
2022/12/19 12:27:31;;;;;;;53.20;31.08;;;1.40;99.90;;;;;;5047664;28;20228;-53
2022/12/19 12:29:56;;;;;;;49.13;29.58;;;0.80;99.90;;;;;;5047442;28;20056;-53
2022/12/19 12:33:09;;;;;;;56.22;31.48;;;0.60;99.90;;;;;;5047317;28;20059;-55
2022/12/19 12:35:38;;;;;;;63.72;32.58;;;0.70;99.90;;;;;;4969365;28;20497;-53
2022/12/19 12:38:22;;;;;;;69.60;39.17;;;0.60;99.90;;;;;;5035652;28;20044;-50
2022/12/19 12:41:12;;;;;;;61.55;36.38;;;0.40;99.90;;;;;;5047441;28;20493;-53
2022/12/19 12:43:50;;;;;;;56.20;33.05;;;0.50;99.90;;;;;;5047259;28;20025;-50
2022/12/19 12:46:24;;;;;;;58.05;32.28;;;0.50;99.90;;;;;;5045818;28;20028;-51
2022/12/19 12:49:32;;;;;;;70.32;34.22;;;0.60;99.90;;;;;;5047081;28;20029;-52
2022/12/19 12:52:01;;;;;;;56.13;30.23;;;0.70;99.90;;;;;;4994709;28;20030;-52
2022/12/19 12:54:36;;;;;;;58.40;31.65;;;0.80;99.90;;;;;;5008442;28;20070;-52
2022/12/19 12:57:03;;;;;;;52.75;30.08;;;0.50;99.90;;;;;;5031549;28;20396;-54